Okarche, Oklahoma
Current Conditions -  °F | °C
As of 2:35 PM on Saturday 25 Oct 2014 (Local Time) from KRCE Reporting Station
Clear Clear  
Wind Chill: 88°   Ceiling: Unl
Heat Index: 88°   Visibility: NA
Dew Point: 57°   Wind: 8mph
Humidity: 35%   Direction: 200°SSW
Pressure: 30.06"   Gusts: NA
Location:  35.73°N, 97.98°W
Report Text: KRCE 251935Z AUTO 20007KT CLR 31/14 A3006 RMK AO2
Loading
Personal Weather Stations






























Interactive Weather Map
Tropical Storm Tracking
New forecast layout! Learn more

10-Day Weather Forecast

Advertisements
Track Severe Weather on mobile